createdAt,value
2018-12-13T00:02:09.022Z,8.43
2018-12-13T00:04:37.378Z,7.95
2018-12-13T00:07:05.750Z,7.90
2018-12-13T00:09:34.019Z,7.42
2018-12-13T00:12:02.323Z,7.45
2018-12-13T00:14:30.681Z,6.85
2018-12-13T00:16:58.981Z,7.25
2018-12-13T00:19:27.401Z,7.72
2018-12-13T00:21:56.180Z,7.28
2018-12-13T00:24:24.998Z,7.78
2018-12-13T00:26:53.435Z,8.28
2018-12-13T00:29:21.912Z,7.10
2018-12-13T00:31:50.509Z,8.05
2018-12-13T00:34:18.894Z,8.08
2018-12-13T00:36:47.391Z,7.80
2018-12-13T00:39:15.868Z,8.20
2018-12-13T00:41:44.128Z,6.60
2018-12-13T00:44:12.548Z,7.10
2018-12-13T00:46:41.474Z,6.60
2018-12-13T00:49:09.748Z,7.40
2018-12-13T00:51:38.254Z,8.05
2018-12-13T00:54:06.787Z,7.80
2018-12-13T00:56:35.246Z,7.22
2018-12-13T00:59:03.666Z,7.00
2018-12-13T01:01:32.173Z,7.20
2018-12-13T01:04:00.498Z,6.78
2018-12-13T01:06:29.111Z,7.22
2018-12-13T01:08:57.469Z,8.43
2018-12-13T01:11:25.842Z,7.65
2018-12-13T01:13:54.534Z,7.00
2018-12-13T01:16:23.817Z,7.42
2018-12-13T01:18:52.300Z,7.33
2018-12-13T01:21:21.073Z,6.20
2018-12-13T01:23:49.695Z,7.45
2018-12-13T01:26:17.994Z,7.25
2018-12-13T01:28:46.286Z,7.42
2018-12-13T01:31:14.717Z,7.80
2018-12-13T01:33:43.119Z,7.12
2018-12-13T01:36:11.384Z,7.95
2018-12-13T01:38:40.280Z,7.85
2018-12-13T01:41:08.710Z,7.70
2018-12-13T01:43:37.016Z,7.35
2018-12-13T01:46:05.423Z,8.35
2018-12-13T01:48:33.752Z,6.50
2018-12-13T01:51:02.028Z,7.92
2018-12-13T01:53:30.335Z,8.13
2018-12-13T01:55:58.819Z,9.08
2018-12-13T01:58:27.355Z,7.67
2018-12-13T02:00:55.764Z,7.35
2018-12-13T02:03:24.039Z,8.10
2018-12-13T02:05:52.526Z,8.05
2018-12-13T02:08:20.820Z,8.60
2018-12-13T02:10:49.130Z,8.95
2018-12-13T02:13:17.443Z,7.67
2018-12-13T02:15:45.954Z,8.85
2018-12-13T02:18:14.264Z,8.20
2018-12-13T02:20:42.715Z,8.45
2018-12-13T02:23:11.073Z,7.50
2018-12-13T02:25:39.427Z,8.63
2018-12-13T02:28:07.851Z,8.65
2018-12-13T02:30:36.839Z,7.03
2018-12-13T02:33:05.440Z,8.08
2018-12-13T02:35:33.964Z,8.28
2018-12-13T02:38:02.282Z,8.00
2018-12-13T02:40:30.527Z,8.40
2018-12-13T02:42:58.804Z,7.90
2018-12-13T02:45:27.405Z,8.48
2018-12-13T02:47:55.684Z,8.15
2018-12-13T02:50:24.267Z,8.18
2018-12-13T02:52:52.521Z,7.65
2018-12-13T02:55:20.877Z,7.33
2018-12-13T02:57:49.248Z,8.40
2018-12-13T03:00:17.554Z,8.55
2018-12-13T03:02:45.873Z,7.75
2018-12-13T03:05:17.353Z,7.70
2018-12-13T03:07:45.671Z,7.83
2018-12-13T03:10:14.101Z,8.73
2018-12-13T03:12:42.416Z,9.75
2018-12-13T03:15:10.743Z,8.53
2018-12-13T03:17:39.074Z,8.75
2018-12-13T03:20:07.635Z,8.48
2018-12-13T03:22:35.962Z,7.87
2018-12-13T03:25:04.506Z,7.42
2018-12-13T03:27:33.027Z,7.87
2018-12-13T03:30:01.299Z,8.98
2018-12-13T03:32:29.720Z,7.97
2018-12-13T03:34:58.371Z,8.38
2018-12-13T03:37:26.743Z,9.23
2018-12-13T03:39:55.065Z,9.40
2018-12-13T03:42:23.417Z,9.55
2018-12-13T03:44:52.344Z,8.78
2018-12-13T03:47:20.752Z,9.10
2018-12-13T03:49:49.063Z,8.98
2018-12-13T03:52:17.297Z,9.95
2018-12-13T03:54:45.647Z,9.45
2018-12-13T03:57:13.967Z,9.75
2018-12-13T03:59:42.359Z,8.65
2018-12-13T04:02:10.747Z,8.80
2018-12-13T04:04:39.001Z,8.45
2018-12-13T04:07:07.260Z,9.30
2018-12-13T04:09:35.528Z,9.10
2018-12-13T04:12:03.868Z,9.08
2018-12-13T04:14:32.561Z,9.23
2018-12-13T04:17:01.012Z,10.60
2018-12-13T04:19:29.308Z,8.45
2018-12-13T04:22:00.717Z,8.20
2018-12-13T04:24:29.933Z,9.43
2018-12-13T04:26:58.279Z,8.50
2018-12-13T04:29:26.704Z,9.75
2018-12-13T04:31:55.111Z,9.18
2018-12-13T04:34:23.588Z,8.98
2018-12-13T04:36:52.014Z,8.68
2018-12-13T04:39:20.360Z,8.40
2018-12-13T04:41:48.644Z,9.18
2018-12-13T04:44:16.880Z,8.28
2018-12-13T04:46:45.225Z,9.20
2018-12-13T04:49:13.517Z,8.70
2018-12-13T04:51:41.839Z,10.15
2018-12-13T04:54:10.293Z,9.65
2018-12-13T04:56:38.772Z,8.85
2018-12-13T04:59:07.504Z,9.05
2018-12-13T05:01:35.806Z,9.28
2018-12-13T05:04:04.422Z,10.10
2018-12-13T05:06:32.782Z,9.50
2018-12-13T05:09:02.769Z,9.83
2018-12-13T05:11:31.271Z,9.15
2018-12-13T05:13:59.637Z,10.35
2018-12-13T05:16:28.600Z,9.30
2018-12-13T05:18:57.466Z,10.35
2018-12-13T05:21:26.414Z,10.25
2018-12-13T05:23:54.808Z,12.63
2018-12-13T05:26:23.111Z,10.82
2018-12-13T05:28:51.492Z,10.60
2018-12-13T05:31:19.837Z,9.48
2018-12-13T05:33:48.226Z,9.93
2018-12-13T05:36:16.737Z,9.85
2018-12-13T05:38:45.019Z,9.60
2018-12-13T05:41:13.402Z,10.95
2018-12-13T05:43:41.670Z,11.33
2018-12-13T05:46:09.976Z,10.28
2018-12-13T05:48:38.250Z,9.98
2018-12-13T05:51:06.529Z,10.60
2018-12-13T05:53:34.794Z,10.03
2018-12-13T05:56:03.082Z,9.90
2018-12-13T05:58:31.391Z,11.18
2018-12-13T06:00:59.677Z,11.78
2018-12-13T06:03:28.105Z,11.08
2018-12-13T06:05:56.365Z,9.65
2018-12-13T06:08:24.825Z,9.08
2018-12-13T06:10:53.472Z,10.40
2018-12-13T06:13:21.769Z,10.38
2018-12-13T06:15:50.141Z,9.20
2018-12-13T06:18:18.429Z,11.45
2018-12-13T06:20:46.783Z,10.55
2018-12-13T06:23:15.089Z,11.10
2018-12-13T06:25:43.383Z,11.83
2018-12-13T06:28:11.875Z,11.00
2018-12-13T06:30:40.287Z,10.50
2018-12-13T06:33:08.595Z,10.60
2018-12-13T06:35:36.874Z,10.13
2018-12-13T06:38:05.772Z,11.38
2018-12-13T06:43:24.606Z,10.25
2018-12-13T06:45:52.933Z,10.30
2018-12-13T06:48:21.260Z,11.57
2018-12-13T06:50:49.563Z,11.60
2018-12-13T06:53:17.861Z,10.98
2018-12-13T06:55:46.147Z,11.45
2018-12-13T06:58:14.417Z,11.05
2018-12-13T07:00:42.725Z,10.40
2018-12-13T07:03:11.076Z,9.60
2018-12-13T07:05:39.383Z,10.85
2018-12-13T07:08:08.074Z,10.40
2018-12-13T07:10:36.603Z,10.08
2018-12-13T07:13:05.255Z,10.75
2018-12-13T07:15:33.583Z,10.60
2018-12-13T07:18:01.857Z,10.90
2018-12-13T07:20:30.314Z,10.55
2018-12-13T07:22:58.629Z,9.80
2018-12-13T07:25:27.170Z,10.00
2018-12-13T07:27:55.690Z,10.35
2018-12-13T07:30:24.376Z,9.98
2018-12-13T07:32:52.809Z,10.20
2018-12-13T07:35:21.130Z,9.90
2018-12-13T07:37:49.370Z,9.80
2018-12-13T07:40:17.650Z,10.63
2018-12-13T07:42:46.159Z,10.32
2018-12-13T07:45:14.422Z,11.55
2018-12-13T07:47:42.767Z,10.03
2018-12-13T07:50:11.039Z,11.12
2018-12-13T07:52:39.332Z,11.38
2018-12-13T07:55:07.858Z,10.15
2018-12-13T07:57:36.205Z,11.15
2018-12-13T08:00:05.094Z,11.55
2018-12-13T08:02:33.365Z,10.55
2018-12-13T08:05:01.682Z,11.18
2018-12-13T08:07:30.670Z,10.88
2018-12-13T08:09:58.996Z,10.85
2018-12-13T08:12:28.310Z,11.38
2018-12-13T08:14:56.695Z,10.98
2018-12-13T08:17:25.100Z,11.78
2018-12-13T08:19:53.466Z,11.75
2018-12-13T08:22:21.855Z,9.53
2018-12-13T08:24:50.229Z,11.35
2018-12-13T08:27:18.497Z,10.30
2018-12-13T08:29:46.842Z,10.25
2018-12-13T08:32:15.063Z,10.98
2018-12-13T08:34:43.451Z,10.90
2018-12-13T08:37:11.699Z,10.58
2018-12-13T08:39:40.012Z,11.30
2018-12-13T08:42:08.389Z,10.60
2018-12-13T08:44:36.748Z,10.98
2018-12-13T08:47:05.124Z,11.45
2018-12-13T08:49:33.390Z,10.75
2018-12-13T08:52:01.670Z,10.55
2018-12-13T08:54:29.955Z,12.30
2018-12-13T08:56:58.212Z,11.12
2018-12-13T08:59:27.063Z,12.28
2018-12-13T09:01:55.509Z,11.05
2018-12-13T09:04:23.755Z,11.35
2018-12-13T09:06:52.563Z,10.80
2018-12-13T09:09:21.024Z,12.30
2018-12-13T09:11:49.459Z,11.50
2018-12-13T09:14:17.704Z,11.60
2018-12-13T09:16:46.324Z,11.22
2018-12-13T09:19:15.354Z,12.25
2018-12-13T09:21:44.273Z,11.90
2018-12-13T09:24:12.902Z,11.65
2018-12-13T09:26:41.264Z,11.05
2018-12-13T09:29:11.698Z,12.00
2018-12-13T09:31:40.256Z,10.68
2018-12-13T09:34:12.061Z,12.98
2018-12-13T09:36:40.282Z,11.05
2018-12-13T09:39:08.687Z,12.35
2018-12-13T09:41:37.010Z,12.23
2018-12-13T09:44:07.576Z,12.90
2018-12-13T09:46:35.943Z,12.95
2018-12-13T09:49:04.223Z,11.25
2018-12-13T09:51:32.582Z,12.00
2018-12-13T09:54:00.874Z,12.10
2018-12-13T09:56:30.174Z,12.75
2018-12-13T09:58:58.445Z,13.20
2018-12-13T10:01:26.771Z,13.93
2018-12-13T10:03:55.049Z,13.55
2018-12-13T10:06:23.370Z,14.93
2018-12-13T10:08:51.764Z,13.03
2018-12-13T10:11:20.034Z,14.93
2018-12-13T10:13:48.312Z,13.72
2018-12-13T10:16:16.733Z,14.70
2018-12-13T10:18:45.265Z,13.32
2018-12-13T10:21:13.494Z,14.10
2018-12-13T10:23:41.795Z,13.32
2018-12-13T10:26:10.044Z,15.18
2018-12-13T10:28:38.300Z,13.90
2018-12-13T10:31:06.785Z,13.03
2018-12-13T10:33:35.042Z,13.60
2018-12-13T10:36:03.413Z,13.10
2018-12-13T10:38:31.813Z,12.80
2018-12-13T10:41:00.303Z,12.43
2018-12-13T10:43:28.674Z,14.33
2018-12-13T10:45:56.965Z,12.75
2018-12-13T10:48:25.478Z,13.25
2018-12-13T10:50:54.000Z,11.93
2018-12-13T10:53:23.009Z,14.55
2018-12-13T10:55:52.778Z,13.00
2018-12-13T10:58:21.058Z,15.60
2018-12-13T11:00:54.702Z,13.30
2018-12-13T11:03:28.883Z,14.75
2018-12-13T11:05:57.182Z,12.82
2018-12-13T11:08:25.632Z,14.83
2018-12-13T11:10:54.026Z,15.32
2018-12-13T11:13:22.397Z,14.45
2018-12-13T11:15:50.689Z,14.58
2018-12-13T11:18:19.011Z,13.93
2018-12-13T11:20:47.263Z,15.38
2018-12-13T11:23:15.863Z,15.18
2018-12-13T11:25:44.272Z,16.90
2018-12-13T11:28:24.032Z,15.40
2018-12-13T11:30:52.736Z,14.13
2018-12-13T11:33:21.112Z,14.73
2018-12-13T11:35:49.589Z,16.42
2018-12-13T11:38:18.078Z,15.08
2018-12-13T11:40:46.669Z,15.80
2018-12-13T11:43:15.026Z,15.13
2018-12-13T11:45:43.449Z,15.80
2018-12-13T11:48:12.045Z,14.73
2018-12-13T11:50:40.486Z,15.98
2018-12-13T11:53:08.885Z,15.05
2018-12-13T11:55:38.574Z,16.30
2018-12-13T11:58:13.397Z,14.98
2018-12-13T12:00:41.678Z,15.72
2018-12-13T12:03:10.132Z,16.48
2018-12-13T12:05:38.647Z,15.50
2018-12-13T12:08:07.341Z,15.60
2018-12-13T12:10:35.813Z,14.90
2018-12-13T12:13:04.413Z,15.93
2018-12-13T12:15:32.871Z,16.57
2018-12-13T12:18:01.248Z,14.87
2018-12-13T12:20:29.483Z,16.00
2018-12-13T12:22:57.992Z,15.10
2018-12-13T12:25:26.314Z,14.90
2018-12-13T12:27:54.640Z,15.23
2018-12-13T12:30:23.052Z,15.80
2018-12-13T12:32:51.397Z,15.93
2018-12-13T12:35:19.814Z,14.30
2018-12-13T12:37:48.075Z,16.32
2018-12-13T12:40:16.402Z,15.58
2018-12-13T12:42:44.862Z,15.90
2018-12-13T12:45:13.185Z,15.88
2018-12-13T12:47:41.612Z,16.30
2018-12-13T12:50:09.956Z,16.42
2018-12-13T12:52:38.269Z,14.93
2018-12-13T12:55:07.040Z,16.35
2018-12-13T12:57:35.415Z,15.40
2018-12-13T13:00:04.124Z,15.60
2018-12-13T13:02:32.814Z,15.70
2018-12-13T13:05:01.264Z,16.45
2018-12-13T13:07:29.616Z,14.35
2018-12-13T13:09:58.068Z,15.75
2018-12-13T13:12:26.324Z,15.25
2018-12-13T13:14:54.552Z,14.90
2018-12-13T13:17:23.101Z,15.88
2018-12-13T13:19:51.399Z,16.50
2018-12-13T13:22:19.845Z,16.50
2018-12-13T13:24:48.203Z,15.40
2018-12-13T13:27:16.588Z,15.65
2018-12-13T13:29:44.937Z,14.53
2018-12-13T13:32:13.393Z,15.80
2018-12-13T13:34:41.728Z,16.17
2018-12-13T13:37:09.983Z,14.58
2018-12-13T13:39:38.266Z,15.50
2018-12-13T13:42:06.620Z,13.35
2018-12-13T13:44:37.660Z,15.45
2018-12-13T13:47:06.575Z,15.58
2018-12-13T13:49:34.937Z,14.95
2018-12-13T13:52:03.576Z,15.05
2018-12-13T13:54:31.956Z,14.80
2018-12-13T13:57:00.416Z,14.30
2018-12-13T13:59:29.328Z,15.18
2018-12-13T14:01:57.700Z,15.90
2018-12-13T14:04:26.165Z,14.13
2018-12-13T14:06:55.241Z,15.05
2018-12-13T14:09:24.054Z,14.58
2018-12-13T14:11:52.469Z,14.58
2018-12-13T14:14:20.731Z,14.95
2018-12-13T14:16:49.057Z,14.23
2018-12-13T14:19:17.564Z,15.23
2018-12-13T14:21:45.857Z,15.50
2018-12-13T14:24:14.193Z,14.68
2018-12-13T14:26:42.561Z,14.78
2018-12-13T14:29:10.846Z,15.20
2018-12-13T14:31:39.418Z,14.50
2018-12-13T14:34:07.723Z,15.03
2018-12-13T14:36:36.070Z,15.93
2018-12-13T14:39:07.233Z,13.98
2018-12-13T14:41:35.617Z,14.20
2018-12-13T14:44:03.916Z,14.43
2018-12-13T14:46:32.137Z,13.72
2018-12-13T14:49:00.477Z,15.03
2018-12-13T14:51:29.057Z,14.63
2018-12-13T14:53:57.446Z,15.08
2018-12-13T14:56:27.053Z,14.45
2018-12-13T14:58:55.345Z,14.05
2018-12-13T15:01:23.678Z,14.87
2018-12-13T15:03:51.982Z,14.75
2018-12-13T15:06:20.577Z,15.28
2018-12-13T15:08:48.815Z,15.58
2018-12-13T15:11:17.044Z,14.80
2018-12-13T15:13:48.092Z,14.30
2018-12-13T15:16:16.928Z,15.30
2018-12-13T15:18:46.032Z,14.53
2018-12-13T15:21:14.256Z,15.10
2018-12-13T15:23:42.534Z,14.93
2018-12-13T15:26:10.821Z,15.18
2018-12-13T15:28:39.238Z,14.55
2018-12-13T15:31:07.570Z,14.55
2018-12-13T15:33:35.860Z,15.05
2018-12-13T15:36:04.102Z,15.60
2018-12-13T15:38:32.419Z,16.87
2018-12-13T15:41:00.668Z,16.30
2018-12-13T15:43:28.915Z,14.78
2018-12-13T15:45:57.170Z,14.20
2018-12-13T15:48:25.428Z,13.98
2018-12-13T15:50:53.694Z,14.63
2018-12-13T15:53:21.989Z,16.80
2018-12-13T15:55:50.298Z,14.28
2018-12-13T15:58:18.541Z,15.08
2018-12-13T16:00:47.229Z,15.90
2018-12-13T16:06:06.105Z,14.00
2018-12-13T16:08:35.296Z,14.13
2018-12-13T16:11:03.629Z,14.75
2018-12-13T16:13:31.886Z,16.35
2018-12-13T16:16:00.358Z,14.80
2018-12-13T16:18:28.669Z,15.25
2018-12-13T16:20:57.198Z,13.75
2018-12-13T16:23:25.440Z,15.08
2018-12-13T16:25:53.687Z,15.93
2018-12-13T16:28:21.905Z,15.50
2018-12-13T16:30:50.242Z,15.05
2018-12-13T16:33:18.852Z,14.33
2018-12-13T16:35:47.194Z,13.70
2018-12-13T16:38:15.609Z,13.22
2018-12-13T16:40:43.872Z,14.35
2018-12-13T16:43:12.602Z,15.30
2018-12-13T16:45:42.048Z,13.65
2018-12-13T16:48:10.425Z,13.28
2018-12-13T16:53:31.273Z,14.07
2018-12-13T16:55:59.598Z,14.50
2018-12-13T16:58:28.022Z,16.02
2018-12-13T17:00:56.350Z,15.83
2018-12-13T17:03:37.066Z,16.20
2018-12-13T17:06:06.284Z,14.70
2018-12-13T17:08:34.637Z,12.58
2018-12-13T17:11:03.768Z,14.38
2018-12-13T17:13:32.621Z,14.73
2018-12-13T17:16:00.895Z,14.25
2018-12-13T17:18:29.181Z,15.05
2018-12-13T17:20:57.442Z,14.43
2018-12-13T17:23:25.822Z,13.78
2018-12-13T17:25:54.153Z,14.58
2018-12-13T17:28:22.446Z,14.53
2018-12-13T17:30:50.897Z,13.83
2018-12-13T17:33:19.175Z,14.13
2018-12-13T17:35:47.428Z,15.35
2018-12-13T17:38:15.829Z,14.40
2018-12-13T17:40:44.138Z,15.15
2018-12-13T17:43:12.468Z,14.25
2018-12-13T17:45:40.725Z,14.55
2018-12-13T17:48:10.133Z,14.90
2018-12-13T17:50:38.424Z,15.00
2018-12-13T17:53:06.694Z,14.90
2018-12-13T17:55:35.001Z,14.23
2018-12-13T17:58:03.269Z,16.75
2018-12-13T18:00:31.575Z,17.80
2018-12-13T18:02:59.789Z,15.20
2018-12-13T18:05:28.037Z,15.38
2018-12-13T18:07:56.828Z,12.98
2018-12-13T18:10:29.393Z,14.33
2018-12-13T18:12:55.778Z,14.40
2018-12-13T18:15:24.118Z,14.07
2018-12-13T18:17:52.406Z,14.90
2018-12-13T18:20:20.677Z,15.20
2018-12-13T18:22:49.082Z,14.43
2018-12-13T18:25:17.418Z,15.28
2018-12-13T18:27:45.671Z,12.60
2018-12-13T18:30:13.916Z,13.65
2018-12-13T18:32:42.323Z,14.00
2018-12-13T18:35:10.594Z,15.50
2018-12-13T18:37:38.955Z,14.33
2018-12-13T18:40:07.775Z,15.18
2018-12-13T18:42:36.154Z,15.03
2018-12-13T18:45:05.359Z,15.10
2018-12-13T18:47:33.791Z,13.78
2018-12-13T18:50:02.157Z,15.90
2018-12-13T18:52:30.437Z,14.95
2018-12-13T18:54:58.824Z,15.90
2018-12-13T18:57:27.164Z,14.87
2018-12-13T18:59:55.548Z,15.72
2018-12-13T19:02:23.990Z,14.15
2018-12-13T19:04:52.292Z,14.33
2018-12-13T19:07:20.690Z,14.10
2018-12-13T19:09:49.046Z,14.87
2018-12-13T19:12:17.280Z,15.50
2018-12-13T19:14:45.651Z,14.28
2018-12-13T19:17:14.145Z,13.68
2018-12-13T19:19:42.446Z,15.65
2018-12-13T19:22:10.704Z,13.25
2018-12-13T19:24:38.981Z,14.03
2018-12-13T19:27:07.414Z,14.45
2018-12-13T19:29:36.438Z,14.63
2018-12-13T19:32:04.788Z,14.60
2018-12-13T19:34:33.155Z,13.40
2018-12-13T19:37:01.516Z,14.35
2018-12-13T19:39:29.769Z,15.10
2018-12-13T19:41:58.097Z,15.58
2018-12-13T19:44:26.392Z,15.25
2018-12-13T19:46:54.700Z,16.12
2018-12-13T19:49:23.112Z,13.78
2018-12-13T19:51:51.469Z,14.45
2018-12-13T19:54:19.820Z,14.70
2018-12-13T19:56:48.117Z,14.78
2018-12-13T19:59:16.487Z,14.07
2018-12-13T20:01:44.745Z,15.20
2018-12-13T20:04:12.989Z,14.10
2018-12-13T20:06:41.306Z,14.50
2018-12-13T20:09:09.903Z,14.83
2018-12-13T20:11:38.188Z,14.20
2018-12-13T20:14:06.511Z,13.95
2018-12-13T20:16:34.762Z,14.73
2018-12-13T20:19:02.995Z,14.33
2018-12-13T20:21:31.254Z,14.15
2018-12-13T20:23:59.616Z,13.00
2018-12-13T20:26:27.950Z,15.08
2018-12-13T20:28:56.284Z,13.20
2018-12-13T20:31:24.531Z,12.55
2018-12-13T20:33:53.057Z,12.50
2018-12-13T20:36:22.194Z,14.25
2018-12-13T20:38:50.436Z,13.20
2018-12-13T20:41:18.798Z,13.38
2018-12-13T20:43:47.184Z,14.68
2018-12-13T20:46:15.641Z,13.58
2018-12-13T20:48:44.266Z,13.05
2018-12-13T20:51:12.538Z,14.25
2018-12-13T20:53:40.782Z,14.60
2018-12-13T20:56:09.136Z,13.05
2018-12-13T20:58:37.452Z,14.03
2018-12-13T21:01:05.682Z,12.35
2018-12-13T21:03:34.258Z,12.43
2018-12-13T21:06:02.507Z,13.70
2018-12-13T21:08:30.846Z,12.70
2018-12-13T21:10:59.350Z,14.07
2018-12-13T21:13:27.709Z,14.13
2018-12-13T21:15:56.469Z,14.60
2018-12-13T21:18:24.718Z,13.20
2018-12-13T21:20:53.010Z,12.05
2018-12-13T21:23:21.417Z,12.85
2018-12-13T21:25:50.346Z,13.83
2018-12-13T21:28:18.598Z,14.03
2018-12-13T21:30:46.867Z,14.60
2018-12-13T21:33:15.733Z,14.60
2018-12-13T21:35:44.096Z,14.55
2018-12-13T21:38:12.403Z,14.68
2018-12-13T21:40:40.912Z,13.43
2018-12-13T21:43:09.406Z,14.18
2018-12-13T21:45:37.736Z,14.00
2018-12-13T21:48:06.018Z,13.75
2018-12-13T21:50:34.290Z,14.80
2018-12-13T21:53:02.761Z,15.15
2018-12-13T21:55:31.164Z,14.43
2018-12-13T21:57:59.915Z,14.00
2018-12-13T22:00:28.397Z,14.03
2018-12-13T22:02:56.710Z,14.73
2018-12-13T22:05:25.147Z,14.85
2018-12-13T22:07:54.078Z,13.72
2018-12-13T22:10:22.503Z,14.25
2018-12-13T22:12:51.318Z,16.30
2018-12-13T22:15:19.766Z,14.78
2018-12-13T22:17:50.337Z,14.53
2018-12-13T22:20:19.240Z,16.42
2018-12-13T22:23:03.510Z,15.72
2018-12-13T22:25:45.242Z,15.15
2018-12-13T22:28:14.100Z,14.03
2018-12-13T22:31:32.045Z,15.30
2018-12-13T22:34:22.239Z,13.62
2018-12-13T22:36:52.229Z,15.00
2018-12-13T22:39:22.628Z,14.55
2018-12-13T22:42:02.148Z,15.78
2018-12-13T22:45:06.054Z,13.30
2018-12-13T22:47:36.228Z,14.98
2018-12-13T22:50:04.781Z,15.35
2018-12-13T22:52:33.150Z,14.53
2018-12-13T22:55:24.300Z,15.40
2018-12-13T22:57:54.149Z,15.88
2018-12-13T23:00:22.661Z,13.80
2018-12-13T23:03:21.011Z,15.65
2018-12-13T23:05:50.807Z,13.18
2018-12-13T23:08:19.301Z,14.58
2018-12-13T23:10:52.773Z,17.07
2018-12-13T23:13:34.582Z,14.35
2018-12-13T23:16:04.973Z,15.05
2018-12-13T23:18:33.769Z,15.43
2018-12-13T23:21:02.114Z,16.15
2018-12-13T23:23:30.395Z,15.32
2018-12-13T23:25:58.733Z,15.53
2018-12-13T23:28:27.078Z,14.83
2018-12-13T23:30:55.346Z,15.13
2018-12-13T23:33:23.635Z,15.25
2018-12-13T23:35:51.899Z,14.60
2018-12-13T23:38:20.193Z,14.65
2018-12-13T23:40:48.552Z,14.65
2018-12-13T23:43:16.838Z,14.65
2018-12-13T23:45:45.154Z,14.78
2018-12-13T23:48:13.558Z,15.43
2018-12-13T23:50:41.858Z,14.87
2018-12-13T23:53:10.155Z,14.73
2018-12-13T23:55:38.462Z,14.35
2018-12-13T23:58:06.897Z,13.68
